createdAt,value
2022-08-12T00:00:37.017Z,2.20
2022-08-12T00:03:22.945Z,2.00
2022-08-12T00:06:09.703Z,1.70
2022-08-12T00:08:57.739Z,1.90
2022-08-12T00:11:46.266Z,1.83
2022-08-12T00:14:32.912Z,1.60
2022-08-12T00:17:22.827Z,1.90
2022-08-12T00:20:09.602Z,1.90
2022-08-12T00:22:58.980Z,1.70
2022-08-12T00:26:20.957Z,2.00
2022-08-12T00:29:02.463Z,2.07
2022-08-12T00:31:48.360Z,1.83
2022-08-12T00:34:36.159Z,1.90
2022-08-12T00:37:23.030Z,2.00
2022-08-12T00:40:11.630Z,1.67
2022-08-12T00:42:42.003Z,2.00
2022-08-12T00:45:12.808Z,1.57
2022-08-12T00:47:42.007Z,1.60
2022-08-12T00:50:18.726Z,1.80
2022-08-12T00:52:48.207Z,1.90
2022-08-12T00:55:17.219Z,1.80
2022-08-12T00:57:48.924Z,1.80
2022-08-12T01:00:20.148Z,2.03
2022-08-12T01:02:51.743Z,2.03
2022-08-12T01:05:41.729Z,1.80
2022-08-12T01:08:28.828Z,1.90
2022-08-12T01:11:15.778Z,1.50
2022-08-12T01:13:48.551Z,2.10
2022-08-12T01:16:19.891Z,2.00
2022-08-12T01:18:48.753Z,2.10
2022-08-12T01:21:44.925Z,1.87
2022-08-12T01:24:34.536Z,1.70
2022-08-12T01:27:07.613Z,1.90
2022-08-12T01:29:44.001Z,1.80
2022-08-12T01:32:14.471Z,2.00
2022-08-12T01:34:47.960Z,1.93
2022-08-12T01:37:20.448Z,2.00
2022-08-12T01:40:33.301Z,1.97
2022-08-12T01:42:46.214Z,2.10
2022-08-12T01:45:15.458Z,1.80
2022-08-12T01:48:05.655Z,1.70
2022-08-12T01:50:43.130Z,1.90
2022-08-12T01:53:16.113Z,2.00
2022-08-12T01:55:48.856Z,1.87
2022-08-12T01:58:26.987Z,1.63
2022-08-12T02:00:59.685Z,1.83
2022-08-12T02:04:02.322Z,1.90
2022-08-12T02:06:54.793Z,2.00
2022-08-12T02:09:46.356Z,1.90
2022-08-12T02:12:28.630Z,1.97
2022-08-12T02:15:13.140Z,1.80
2022-08-12T02:17:57.054Z,2.00
2022-08-12T02:20:51.698Z,2.07
2022-08-12T02:23:27.243Z,2.20
2022-08-12T02:26:00.592Z,1.90
2022-08-12T02:28:31.793Z,1.90
2022-08-12T02:31:05.618Z,2.10
2022-08-12T02:33:34.877Z,2.03
2022-08-12T02:36:04.066Z,1.97
2022-08-12T02:38:33.291Z,2.10
2022-08-12T02:41:07.029Z,2.07
2022-08-12T02:43:41.795Z,2.00
2022-08-12T02:46:14.800Z,1.90
2022-08-12T02:48:49.172Z,2.10
2022-08-12T02:51:20.798Z,1.90
2022-08-12T02:54:04.911Z,2.10
2022-08-12T02:56:37.946Z,2.10
2022-08-12T02:59:12.291Z,2.10
2022-08-12T03:01:48.224Z,2.00
2022-08-12T03:04:26.951Z,1.80
2022-08-12T03:07:05.020Z,1.90
2022-08-12T03:10:04.739Z,2.00
2022-08-12T03:12:26.888Z,1.90
2022-08-12T03:15:07.169Z,5.17
2022-08-12T03:17:39.846Z,7.00
2022-08-12T03:20:11.199Z,8.43
2022-08-12T03:22:41.751Z,10.20
2022-08-12T03:25:17.413Z,9.50
2022-08-12T03:27:55.757Z,10.27
2022-08-12T03:30:28.064Z,12.80
2022-08-12T03:32:58.337Z,16.93
2022-08-12T03:35:38.428Z,10.17
2022-08-12T03:38:12.404Z,5.67
2022-08-12T03:41:12.247Z,4.07
2022-08-12T03:44:05.347Z,4.17
2022-08-12T03:46:58.069Z,4.57
2022-08-12T03:49:44.137Z,5.77
2022-08-12T03:52:30.303Z,7.10
2022-08-12T03:58:13.722Z,6.50
2022-08-12T04:00:42.301Z,4.90
2022-08-12T04:03:26.372Z,5.17
2022-08-12T04:05:56.689Z,4.60
2022-08-12T04:08:27.226Z,5.27
2022-08-12T04:11:14.213Z,5.17
2022-08-12T04:13:42.661Z,5.50
2022-08-12T04:16:13.698Z,4.40
2022-08-12T04:18:44.714Z,3.00
2022-08-12T04:21:13.213Z,2.30
2022-08-12T04:23:48.266Z,2.00
2022-08-12T04:26:17.535Z,2.00
2022-08-12T04:28:46.081Z,2.27
2022-08-12T04:31:14.943Z,2.47
2022-08-12T04:33:45.572Z,2.40
2022-08-12T04:36:14.017Z,2.30
2022-08-12T04:38:43.395Z,2.40
2022-08-12T04:41:12.332Z,2.50
2022-08-12T04:43:59.672Z,2.20
2022-08-12T04:46:34.374Z,2.30
2022-08-12T04:49:06.009Z,2.13
2022-08-12T04:51:35.097Z,2.30
2022-08-12T04:54:04.956Z,2.53
2022-08-12T04:57:04.612Z,2.50
2022-08-12T04:59:47.644Z,2.37
2022-08-12T05:02:21.428Z,2.23
2022-08-12T05:04:55.871Z,2.50
2022-08-12T05:07:24.494Z,2.00
2022-08-12T05:10:00.853Z,2.30
2022-08-12T05:12:36.882Z,2.07
2022-08-12T05:15:18.952Z,1.93
2022-08-12T05:17:49.763Z,1.97
2022-08-12T05:20:22.775Z,1.97
2022-08-12T05:22:56.962Z,2.23
2022-08-12T05:25:26.230Z,2.07
2022-08-12T05:27:55.462Z,2.10
2022-08-12T05:30:27.472Z,2.07
2022-08-12T05:32:59.965Z,2.00
2022-08-12T05:35:30.212Z,2.30
2022-08-12T05:38:12.443Z,1.83
2022-08-12T05:40:42.123Z,1.73
2022-08-12T05:43:10.862Z,1.93
2022-08-12T05:45:42.937Z,1.80
2022-08-12T05:48:13.784Z,1.70
2022-08-12T05:50:44.274Z,1.90
2022-08-12T05:53:13.317Z,1.90
2022-08-12T05:58:26.557Z,1.93
2022-08-12T06:00:55.206Z,2.17
2022-08-12T06:03:25.640Z,1.97
2022-08-12T06:05:57.325Z,1.80
2022-08-12T06:08:27.509Z,2.10
2022-08-12T06:10:57.448Z,2.00
2022-08-12T06:13:52.868Z,1.90
2022-08-12T06:16:19.367Z,1.67
2022-08-12T06:18:48.756Z,2.07
2022-08-12T06:21:21.829Z,1.93
2022-08-12T06:23:50.814Z,1.87
2022-08-12T06:26:20.758Z,1.80
2022-08-12T06:28:50.978Z,1.83
2022-08-12T06:31:27.984Z,1.80
2022-08-12T06:34:52.875Z,2.00
2022-08-12T06:36:46.616Z,1.80
2022-08-12T06:39:15.867Z,1.90
2022-08-12T06:42:31.654Z,2.10
2022-08-12T06:44:50.804Z,2.00
2022-08-12T06:47:20.002Z,1.80
2022-08-12T06:49:48.687Z,1.83
2022-08-12T06:52:19.343Z,1.90
2022-08-12T06:54:47.898Z,2.00
2022-08-12T06:58:06.944Z,2.00
2022-08-12T07:00:06.785Z,1.90
2022-08-12T07:02:37.223Z,2.00
2022-08-12T07:05:06.797Z,2.00
2022-08-12T07:07:39.065Z,2.13
2022-08-12T07:10:08.718Z,2.10
2022-08-12T07:12:37.555Z,1.90
2022-08-12T07:15:07.015Z,1.80
2022-08-12T07:17:37.981Z,1.90
2022-08-12T07:20:29.721Z,1.60
2022-08-12T07:23:03.712Z,1.70
2022-08-12T07:25:40.290Z,2.00
2022-08-12T07:28:16.414Z,1.70
2022-08-12T07:30:48.603Z,1.73
2022-08-12T07:33:18.290Z,1.60
2022-08-12T07:35:48.433Z,1.70
2022-08-12T07:38:29.860Z,1.90
2022-08-12T07:41:06.627Z,1.80
2022-08-12T07:43:36.720Z,1.90
2022-08-12T07:46:10.185Z,1.80
2022-08-12T07:48:42.211Z,1.90
2022-08-12T07:51:11.420Z,1.60
2022-08-12T07:54:00.749Z,1.70
2022-08-12T07:56:32.229Z,1.57
2022-08-12T07:59:01.195Z,1.97
2022-08-12T08:01:30.428Z,1.77
2022-08-12T08:04:19.254Z,2.10
2022-08-12T08:06:48.829Z,1.73
2022-08-12T08:09:22.458Z,1.80
2022-08-12T08:12:08.728Z,1.60
2022-08-12T08:14:37.280Z,1.87
2022-08-12T08:17:06.753Z,1.83
2022-08-12T08:20:03.251Z,1.73
2022-08-12T08:22:25.774Z,1.80
2022-08-12T08:25:36.418Z,1.80
2022-08-12T08:28:04.862Z,1.80
2022-08-12T08:30:34.778Z,1.70
2022-08-12T08:33:05.226Z,1.50
2022-08-12T08:35:48.908Z,1.70
2022-08-12T08:38:33.145Z,1.37
2022-08-12T08:42:16.163Z,1.90
2022-08-12T08:44:12.182Z,1.80
2022-08-12T08:46:41.248Z,1.53
2022-08-12T08:49:09.741Z,1.60
2022-08-12T08:51:39.141Z,1.53
2022-08-12T08:54:08.704Z,1.70
2022-08-12T08:56:46.568Z,1.80
2022-08-12T08:59:15.919Z,1.83
2022-08-12T09:01:44.941Z,1.60
2022-08-12T09:05:07.544Z,1.60
2022-08-12T09:07:17.886Z,1.70
2022-08-12T09:10:03.268Z,1.60
2022-08-12T09:13:01.151Z,2.10
2022-08-12T09:15:35.767Z,1.60
2022-08-12T09:18:09.096Z,1.57
2022-08-12T09:20:39.243Z,1.50
2022-08-12T09:23:56.893Z,1.93
2022-08-12T09:26:04.071Z,1.70
2022-08-12T09:28:37.251Z,1.60
2022-08-12T09:31:53.925Z,1.90
2022-08-12T09:34:29.115Z,1.70
2022-08-12T09:37:00.489Z,1.73
2022-08-12T09:40:01.425Z,2.03
2022-08-12T09:42:43.300Z,1.90
2022-08-12T09:46:06.499Z,1.90
2022-08-12T09:48:20.161Z,1.80
2022-08-12T09:50:55.490Z,1.77
2022-08-12T09:53:29.466Z,1.50
2022-08-12T09:59:02.082Z,2.13
2022-08-12T10:01:34.445Z,1.70
2022-08-12T10:04:06.003Z,1.97
2022-08-12T10:06:36.317Z,2.77
2022-08-12T10:09:08.300Z,1.70
2022-08-12T10:12:07.706Z,1.47
2022-08-12T10:14:40.006Z,1.80
2022-08-12T10:17:22.937Z,1.73
2022-08-12T10:19:53.196Z,1.63
2022-08-12T10:22:48.142Z,2.43
2022-08-12T10:26:35.960Z,1.60
2022-08-12T10:28:33.782Z,5.23
2022-08-12T10:31:04.862Z,1.80
2022-08-12T10:33:43.832Z,3.20
2022-08-12T10:36:40.218Z,1.63
2022-08-12T10:40:02.053Z,3.27
2022-08-12T10:42:29.094Z,1.80
2022-08-12T10:45:01.236Z,2.07
2022-08-12T10:48:19.134Z,1.63
2022-08-12T10:50:35.792Z,1.77
2022-08-12T10:53:11.027Z,2.40
2022-08-12T10:55:55.553Z,1.57
2022-08-12T10:58:30.853Z,2.00
2022-08-12T11:01:25.814Z,1.30
2022-08-12T11:04:23.561Z,1.40
2022-08-12T11:07:09.011Z,2.53
2022-08-12T11:09:54.247Z,1.50
2022-08-12T11:12:57.977Z,1.50
2022-08-12T11:15:20.838Z,3.07
2022-08-12T11:17:54.966Z,2.73
2022-08-12T11:20:30.694Z,3.30
2022-08-12T11:23:03.647Z,1.50
2022-08-12T11:25:56.381Z,1.43
2022-08-12T11:28:33.783Z,1.60
2022-08-12T11:31:04.250Z,2.17
2022-08-12T11:34:04.589Z,1.80
2022-08-12T11:36:22.457Z,1.57
2022-08-12T11:38:52.602Z,1.27
2022-08-12T11:41:30.943Z,4.03
2022-08-12T11:44:29.098Z,1.87
2022-08-12T11:46:51.200Z,1.60
2022-08-12T11:49:32.454Z,1.80
2022-08-12T11:52:02.536Z,1.70
2022-08-12T11:54:33.542Z,1.20
2022-08-12T11:58:01.158Z,2.47
2022-08-12T12:02:43.309Z,1.60
2022-08-12T12:05:15.822Z,1.40
2022-08-12T12:08:40.934Z,1.40
2022-08-12T12:10:38.584Z,1.50
2022-08-12T12:13:11.666Z,2.03
2022-08-12T12:15:51.760Z,1.30
2022-08-12T12:18:30.931Z,2.10
2022-08-12T12:21:00.599Z,1.73
2022-08-12T12:23:30.925Z,1.43
2022-08-12T12:26:08.585Z,2.03
2022-08-12T12:28:54.376Z,2.53
2022-08-12T12:32:11.814Z,2.53
2022-08-12T12:34:13.092Z,1.20
2022-08-12T12:37:00.774Z,1.90
2022-08-12T12:39:54.658Z,1.87
2022-08-12T12:42:45.583Z,1.30
2022-08-12T12:45:19.114Z,2.63
2022-08-12T12:47:59.485Z,1.70
2022-08-12T12:50:35.286Z,1.50
2022-08-12T12:53:05.121Z,1.40
2022-08-12T12:55:36.065Z,1.50
2022-08-12T12:58:11.283Z,1.73
2022-08-12T13:00:49.977Z,1.60
2022-08-12T13:03:19.548Z,1.40
2022-08-12T13:05:54.005Z,1.43
2022-08-12T13:08:28.538Z,1.60
2022-08-12T13:11:07.117Z,1.40
2022-08-12T13:14:08.593Z,1.77
2022-08-12T13:16:29.420Z,1.70
2022-08-12T13:18:58.737Z,1.50
2022-08-12T13:21:44.423Z,1.60
2022-08-12T13:24:12.827Z,1.50
2022-08-12T13:26:41.248Z,1.33
2022-08-12T13:29:13.032Z,1.50
2022-08-12T13:32:17.532Z,1.70
2022-08-12T13:34:35.643Z,1.90
2022-08-12T13:37:09.652Z,1.60
2022-08-12T13:39:39.273Z,1.50
2022-08-12T13:42:13.866Z,1.57
2022-08-12T13:44:46.313Z,1.50
2022-08-12T13:47:20.059Z,1.50
2022-08-12T13:49:53.552Z,1.87
2022-08-12T13:52:24.170Z,1.43
2022-08-12T13:54:56.826Z,1.57
2022-08-12T13:57:26.590Z,1.60
2022-08-12T14:00:00.550Z,1.90
2022-08-12T14:02:31.241Z,2.80
2022-08-12T14:04:59.905Z,1.40
2022-08-12T14:07:28.413Z,1.40
2022-08-12T14:10:38.808Z,1.53
2022-08-12T14:14:06.077Z,1.63
2022-08-12T14:16:14.380Z,1.63
2022-08-12T14:18:47.413Z,1.70
2022-08-12T14:21:18.171Z,1.50
2022-08-12T14:24:05.415Z,1.37
2022-08-12T14:26:39.073Z,1.70
2022-08-12T14:29:07.541Z,1.80
2022-08-12T14:31:40.809Z,1.47
2022-08-12T14:34:12.409Z,1.50
2022-08-12T14:36:41.056Z,1.60
2022-08-12T14:39:11.126Z,1.50
2022-08-12T14:41:48.585Z,1.63
2022-08-12T14:44:58.012Z,1.63
2022-08-12T14:47:15.458Z,1.40
2022-08-12T14:50:37.639Z,1.87
2022-08-12T14:53:26.221Z,1.57
2022-08-12T14:58:12.253Z,1.70
2022-08-12T15:00:59.864Z,1.70
2022-08-12T15:03:46.724Z,1.40
2022-08-12T15:06:43.940Z,1.60
2022-08-12T15:09:12.126Z,1.30
2022-08-12T15:11:54.842Z,1.20
2022-08-12T15:14:25.734Z,1.10
2022-08-12T15:16:54.970Z,1.20
2022-08-12T15:20:30.840Z,1.20
2022-08-12T15:22:35.503Z,1.20
2022-08-12T15:25:07.644Z,1.10
2022-08-12T15:28:20.384Z,1.40
2022-08-12T15:30:33.721Z,1.50
2022-08-12T15:33:12.452Z,1.20
2022-08-12T15:35:52.236Z,1.23
2022-08-12T15:38:28.276Z,1.27
2022-08-12T15:41:00.059Z,0.90
2022-08-12T15:43:51.229Z,1.03
2022-08-12T15:46:25.676Z,1.20
2022-08-12T15:48:54.956Z,1.90
2022-08-12T15:51:59.012Z,1.30
2022-08-12T15:54:35.109Z,1.40
2022-08-12T15:57:07.805Z,1.20
2022-08-12T16:00:00.389Z,1.13
2022-08-12T16:02:29.819Z,1.17
2022-08-12T16:04:58.761Z,1.20
2022-08-12T16:07:36.934Z,1.13
2022-08-12T16:10:09.266Z,1.20
2022-08-12T16:12:50.275Z,1.30
2022-08-12T16:15:26.416Z,2.00
2022-08-12T16:18:19.038Z,1.50
2022-08-12T16:20:47.494Z,1.30
2022-08-12T16:23:51.390Z,1.33
2022-08-12T16:26:15.300Z,1.50
2022-08-12T16:28:47.361Z,1.17
2022-08-12T16:31:23.238Z,1.27
2022-08-12T16:33:58.633Z,1.03
2022-08-12T16:36:29.869Z,1.20
2022-08-12T16:39:02.044Z,1.07
2022-08-12T16:41:37.921Z,2.57
2022-08-12T16:44:09.064Z,1.20
2022-08-12T16:46:38.033Z,1.10
2022-08-12T16:49:09.027Z,1.00
2022-08-12T16:51:46.480Z,1.30
2022-08-12T16:54:18.605Z,1.03
2022-08-12T16:56:55.473Z,1.10
2022-08-12T16:59:52.783Z,1.10
2022-08-12T17:02:31.860Z,1.20
2022-08-12T17:05:04.791Z,1.23
2022-08-12T17:07:43.157Z,1.30
2022-08-12T17:10:18.609Z,1.17
2022-08-12T17:13:09.511Z,1.20
2022-08-12T17:15:57.590Z,1.07
2022-08-12T17:18:43.850Z,1.30
2022-08-12T17:21:40.070Z,1.50
2022-08-12T17:24:15.002Z,1.20
2022-08-12T17:26:49.110Z,1.13
2022-08-12T17:29:31.884Z,1.23
2022-08-12T17:32:11.300Z,1.20
2022-08-12T17:34:57.223Z,1.17
2022-08-12T17:37:25.565Z,1.10
2022-08-12T17:40:15.483Z,1.40
2022-08-12T17:42:47.901Z,1.23
2022-08-12T17:45:19.331Z,1.20
2022-08-12T17:48:01.390Z,1.20
2022-08-12T17:50:34.320Z,1.20
2022-08-12T17:53:04.051Z,1.37
2022-08-12T17:55:44.792Z,1.60
2022-08-12T17:58:18.853Z,1.37
2022-08-12T18:00:51.001Z,1.67
2022-08-12T18:04:14.055Z,1.23
2022-08-12T18:06:14.672Z,1.40
2022-08-12T18:08:54.861Z,1.30
2022-08-12T18:12:05.591Z,1.40
2022-08-12T18:14:37.321Z,1.10
2022-08-12T18:17:08.496Z,1.40
2022-08-12T18:20:05.224Z,1.20
2022-08-12T18:22:30.420Z,1.20
2022-08-12T18:26:09.995Z,1.40
2022-08-12T18:28:15.118Z,1.30
2022-08-12T18:30:52.279Z,1.07
2022-08-12T18:33:25.058Z,1.20
2022-08-12T18:35:57.162Z,1.30
2022-08-12T18:38:28.088Z,1.20
2022-08-12T18:41:20.977Z,1.20
2022-08-12T18:44:06.061Z,1.70
2022-08-12T18:46:54.297Z,1.20
2022-08-12T18:49:30.387Z,1.30
2022-08-12T18:52:04.144Z,1.30
2022-08-12T18:54:35.812Z,1.40
2022-08-12T18:57:19.377Z,1.43
2022-08-12T19:00:06.511Z,1.60
2022-08-12T19:02:40.532Z,1.47
2022-08-12T19:05:11.590Z,1.37
2022-08-12T19:07:50.049Z,1.13
2022-08-12T19:10:30.542Z,1.50
2022-08-12T19:13:21.150Z,1.17
2022-08-12T19:15:54.840Z,2.17
2022-08-12T19:18:29.972Z,1.37
2022-08-12T19:21:11.914Z,1.20
2022-08-12T19:24:05.331Z,1.43
2022-08-12T19:26:34.501Z,1.30
2022-08-12T19:29:08.332Z,1.30
2022-08-12T19:31:55.517Z,1.10
2022-08-12T19:37:26.781Z,1.23
2022-08-12T19:40:10.122Z,1.30
2022-08-12T19:43:00.661Z,1.30
2022-08-12T19:45:43.492Z,1.33
2022-08-12T19:48:18.980Z,1.60
2022-08-12T19:50:52.376Z,1.40
2022-08-12T19:53:22.894Z,1.37
2022-08-12T19:55:53.259Z,1.67
2022-08-12T19:58:23.152Z,1.50
2022-08-12T20:00:55.841Z,1.30
2022-08-12T20:03:38.818Z,1.37
2022-08-12T20:06:13.680Z,1.40
2022-08-12T20:08:49.046Z,1.30
2022-08-12T20:12:14.234Z,1.20
2022-08-12T20:14:17.926Z,1.50
2022-08-12T20:16:48.166Z,1.40
2022-08-12T20:19:20.634Z,1.40
2022-08-12T20:21:50.505Z,1.50
2022-08-12T20:24:19.428Z,1.27
2022-08-12T20:26:48.437Z,1.50
2022-08-12T20:29:20.288Z,1.40
2022-08-12T20:31:51.897Z,1.40
2022-08-12T20:34:20.567Z,1.30
2022-08-12T20:36:57.245Z,1.20
2022-08-12T20:39:53.171Z,1.63
2022-08-12T20:42:23.177Z,1.33
2022-08-12T20:44:53.071Z,1.20
2022-08-12T20:47:21.670Z,1.67
2022-08-12T20:49:55.885Z,1.30
2022-08-12T20:52:34.003Z,1.27
2022-08-12T20:55:03.875Z,1.30
2022-08-12T20:57:37.590Z,1.40
2022-08-12T21:00:14.330Z,1.60
2022-08-12T21:02:45.880Z,1.40
2022-08-12T21:06:09.323Z,1.30
2022-08-12T21:08:26.703Z,1.40
2022-08-12T21:10:58.995Z,1.37
2022-08-12T21:13:29.555Z,1.50
2022-08-12T21:16:09.843Z,1.30
2022-08-12T21:18:38.942Z,1.70
2022-08-12T21:21:23.691Z,1.67
2022-08-12T21:23:56.512Z,1.40
2022-08-12T21:26:28.142Z,1.20
2022-08-12T21:29:01.338Z,1.20
2022-08-12T21:32:40.077Z,1.30
2022-08-12T21:34:23.899Z,1.30
2022-08-12T21:37:01.906Z,1.50
2022-08-12T21:39:53.577Z,1.30
2022-08-12T21:42:29.447Z,1.50
2022-08-12T21:45:46.866Z,1.57
2022-08-12T21:47:53.277Z,1.30
2022-08-12T21:50:22.064Z,1.20
2022-08-12T21:52:57.733Z,1.43
2022-08-12T21:55:29.024Z,1.27
2022-08-12T21:58:11.033Z,1.50
2022-08-12T22:00:41.034Z,1.40
2022-08-12T22:04:03.497Z,1.40
2022-08-12T22:06:30.428Z,1.40
2022-08-12T22:09:17.119Z,1.40
2022-08-12T22:11:56.375Z,1.50
2022-08-12T22:14:29.140Z,1.30
2022-08-12T22:17:01.561Z,1.33
2022-08-12T22:19:35.182Z,1.20
2022-08-12T22:22:05.376Z,1.50
2022-08-12T22:24:34.361Z,1.70
2022-08-12T22:27:08.132Z,1.50
2022-08-12T22:30:16.081Z,1.50
2022-08-12T22:32:50.455Z,1.63
2022-08-12T22:35:56.414Z,1.50
2022-08-12T22:38:25.521Z,1.50
2022-08-12T22:40:56.287Z,1.60
2022-08-12T22:43:56.372Z,1.30
2022-08-12T22:46:52.796Z,1.67
2022-08-12T22:49:36.340Z,1.40
2022-08-12T22:52:08.288Z,1.53
2022-08-12T22:54:37.807Z,1.30
2022-08-12T22:57:49.390Z,1.50
2022-08-12T23:00:27.195Z,1.70
2022-08-12T23:03:02.941Z,1.47
2022-08-12T23:05:56.826Z,1.43
2022-08-12T23:08:22.855Z,1.30
2022-08-12T23:10:52.407Z,1.43
2022-08-12T23:13:43.993Z,1.50
2022-08-12T23:16:18.461Z,1.47
2022-08-12T23:18:59.619Z,1.43
2022-08-12T23:21:40.231Z,1.50
2022-08-12T23:24:17.221Z,1.50
2022-08-12T23:27:04.453Z,1.40
2022-08-12T23:29:43.148Z,1.47
2022-08-12T23:32:36.520Z,1.37
2022-08-12T23:35:04.061Z,1.43
2022-08-12T23:37:46.544Z,1.60
2022-08-12T23:40:19.677Z,1.30
2022-08-12T23:42:50.414Z,1.37
2022-08-12T23:45:20.629Z,1.50
2022-08-12T23:48:01.228Z,1.57
2022-08-12T23:50:34.506Z,1.40
2022-08-12T23:53:14.040Z,1.40
2022-08-12T23:55:54.967Z,1.40
2022-08-12T23:58:28.734Z,1.20
